Time;durP1;ratioP1;P1;durP2;ratioP2;P2;SDS_P1;SDS_P2;PMS_P1;PMS_P2;Temp;Humidity;BMP_temperature;BMP_pressure;BME280_temperature;BME280_humidity;BME280_pressure;Samples;Min_cycle;Max_cycle;Signal;HPM_P1;HPM_P2
2023/10/29 00:01:19;;;;;;;2.60;1.43;;;13.60;16.20;;;;;;5082089;28;20186;-80
2023/10/29 00:03:45;;;;;;;2.30;1.20;;;13.70;16.40;;;;;;5084784;28;20454;-80
2023/10/29 00:06:11;;;;;;;3.43;1.77;;;13.70;7.40;;;;;;5082588;28;20209;-80
2023/10/29 00:08:37;;;;;;;4.50;1.63;;;13.70;5.70;;;;;;5063103;28;20267;-80
2023/10/29 00:11:03;;;;;;;6.30;1.60;;;13.80;1.00;;;;;;5084234;28;20459;-80
2023/10/29 00:13:28;;;;;;;3.03;1.80;;;13.80;1.00;;;;;;5084642;28;20203;-80
2023/10/29 00:15:54;;;;;;;2.57;1.43;;;13.80;1.00;;;;;;5083963;28;20260;-80
2023/10/29 00:18:19;;;;;;;5.30;1.50;;;13.90;1.00;;;;;;5079073;28;20185;-80
2023/10/29 00:20:45;;;;;;;3.83;1.50;;;13.90;1.00;;;;;;5063922;28;20347;-80
2023/10/29 00:23:10;;;;;;;4.20;2.07;;;14.00;1.00;;;;;;5083090;28;20195;-80
2023/10/29 00:25:36;;;;;;;2.33;1.50;;;14.00;1.00;;;;;;5082523;28;20184;-80
2023/10/29 00:28:01;;;;;;;4.87;1.77;;;14.00;1.00;;;;;;5085493;28;20188;-80
2023/10/29 00:30:27;;;;;;;2.20;1.87;;;14.00;1.00;;;;;;5084725;28;20204;-80
2023/10/29 00:32:52;;;;;;;3.20;1.73;;;14.10;1.00;;;;;;5065751;28;20189;-80
2023/10/29 00:35:18;;;;;;;4.30;2.40;;;14.10;1.00;;;;;;5081079;28;20558;-80
2023/10/29 00:37:43;;;;;;;2.83;1.57;;;14.10;1.00;;;;;;5078140;28;20220;-80
2023/10/29 00:40:09;;;;;;;5.47;1.50;;;14.20;1.00;;;;;;5065756;28;20204;-79
2023/10/29 00:42:35;;;;;;;3.80;1.30;;;14.20;1.00;;;;;;5083774;28;20216;-80
2023/10/29 00:45:01;;;;;;;1.90;1.40;;;14.30;1.00;;;;;;5082848;28;20431;-81
2023/10/29 00:47:27;;;;;;;2.33;1.30;;;14.30;1.00;;;;;;5082127;28;20219;-81
2023/10/29 00:49:53;;;;;;;2.93;1.30;;;14.30;1.00;;;;;;5081557;28;20196;-81
2023/10/29 00:52:21;;;;;;;2.27;1.17;;;14.30;1.00;;;;;;5080156;28;20439;-81
2023/10/29 00:54:47;;;;;;;5.43;1.27;;;14.30;1.00;;;;;;5080591;28;20440;-80
2023/10/29 00:57:12;;;;;;;2.23;1.20;;;14.30;1.00;;;;;;5074266;28;20449;-80
2023/10/29 00:59:38;;;;;;;2.90;1.40;;;14.30;1.00;;;;;;5080993;28;20519;-81
2023/10/29 01:02:04;;;;;;;4.07;1.13;;;14.30;1.00;;;;;;5062647;28;20186;-81
2023/10/29 01:04:29;;;;;;;3.30;1.33;;;14.30;1.00;;;;;;5056853;28;20210;-80
2023/10/29 01:06:55;;;;;;;4.00;1.37;;;14.30;1.00;;;;;;5081920;28;20205;-81
2023/10/29 01:09:21;;;;;;;3.80;1.50;;;14.30;1.00;;;;;;5077740;28;20193;-81
2023/10/29 01:11:46;;;;;;;4.27;1.30;;;14.30;1.00;;;;;;5080970;28;20602;-81
2023/10/29 01:14:12;;;;;;;2.13;1.50;;;14.30;1.00;;;;;;5080490;28;20177;-80
2023/10/29 01:16:39;;;;;;;2.73;1.30;;;14.30;1.00;;;;;;5081363;28;20217;-81
2023/10/29 01:19:04;;;;;;;5.00;1.60;;;14.30;1.00;;;;;;5081185;28;20463;-81
2023/10/29 01:21:31;;;;;;;6.67;1.77;;;14.30;1.00;;;;;;5079127;28;20526;-80
2023/10/29 01:23:56;;;;;;;2.10;1.40;;;14.30;1.00;;;;;;5058202;28;20204;-81
2023/10/29 01:26:22;;;;;;;5.23;1.57;;;14.30;1.00;;;;;;5062579;28;20681;-81
2023/10/29 01:28:47;;;;;;;2.87;1.40;;;14.30;1.00;;;;;;5079559;28;20597;-81
2023/10/29 01:31:13;;;;;;;2.30;1.33;;;14.30;1.00;;;;;;5079907;28;20217;-80
2023/10/29 01:33:39;;;;;;;5.70;1.40;;;14.20;1.00;;;;;;5076840;28;20194;-80
2023/10/29 01:36:06;;;;;;;3.53;1.20;;;14.20;1.00;;;;;;5063684;28;20247;-80
2023/10/29 01:38:32;;;;;;;5.63;1.90;;;14.20;1.00;;;;;;5081829;28;20197;-80
2023/10/29 01:40:57;;;;;;;1.80;1.20;;;14.20;1.00;;;;;;5076558;28;20500;-80
2023/10/29 01:43:23;;;;;;;1.93;1.23;;;14.20;1.00;;;;;;5080839;28;20431;-80
2023/10/29 01:45:49;;;;;;;2.27;1.30;;;14.20;1.00;;;;;;5076888;28;20194;-80
2023/10/29 01:48:16;;;;;;;4.77;1.27;;;14.20;1.00;;;;;;5081447;28;20178;-79
2023/10/29 01:50:41;;;;;;;3.20;1.40;;;14.20;1.00;;;;;;5080853;28;20196;-80
2023/10/29 01:53:07;;;;;;;6.77;1.40;;;14.20;1.00;;;;;;5063585;28;20440;-80
2023/10/29 01:55:36;;;;;;;2.30;1.30;;;14.20;1.00;;;;;;5078849;28;20213;-80
2023/10/29 01:58:02;;;;;;;2.57;1.40;;;14.20;1.00;;;;;;5070609;28;20182;-80
2023/10/29 02:00:28;;;;;;;5.03;1.30;;;14.20;1.00;;;;;;5078536;28;20474;-81
2023/10/29 02:02:53;;;;;;;1.80;1.27;;;14.20;1.00;;;;;;5078049;28;20186;-80
2023/10/29 02:05:19;;;;;;;1.70;1.10;;;14.20;1.00;;;;;;5076302;28;20181;-80
2023/10/29 02:07:45;;;;;;;2.43;0.97;;;14.20;1.00;;;;;;5078498;28;20288;-80
2023/10/29 02:10:11;;;;;;;1.90;0.90;;;14.30;1.00;;;;;;5078213;28;20189;-80
2023/10/29 02:12:36;;;;;;;3.50;1.30;;;14.30;1.00;;;;;;5080572;28;20438;-80
2023/10/29 02:15:04;;;;;;;2.50;1.00;;;14.30;1.00;;;;;;5076691;28;20242;-79
2023/10/29 02:17:30;;;;;;;4.43;1.07;;;14.30;1.00;;;;;;5080274;28;20469;-80
2023/10/29 02:19:56;;;;;;;3.70;0.90;;;14.30;1.00;;;;;;5078822;28;20491;-80
2023/10/29 02:22:25;;;;;;;2.07;0.90;;;14.30;1.00;;;;;;5080448;28;20659;-80
2023/10/29 02:24:51;;;;;;;4.53;1.57;;;14.30;1.00;;;;;;5063377;28;20444;-80
2023/10/29 02:27:17;;;;;;;3.53;1.00;;;14.30;1.00;;;;;;5080814;28;20454;-79
2023/10/29 02:29:42;;;;;;;1.77;1.10;;;14.30;1.00;;;;;;5081340;28;20200;-80
2023/10/29 02:32:08;;;;;;;2.90;1.47;;;14.30;1.00;;;;;;5060017;28;20969;-80
2023/10/29 02:34:33;;;;;;;1.60;0.90;;;14.30;1.00;;;;;;5075338;28;20520;-79
2023/10/29 02:36:59;;;;;;;2.17;0.93;;;14.30;1.00;;;;;;5063113;28;20270;-79
2023/10/29 02:39:24;;;;;;;3.23;1.10;;;14.30;1.00;;;;;;5078939;28;20270;-80
2023/10/29 02:41:50;;;;;;;5.73;1.00;;;14.30;1.00;;;;;;5081275;28;20185;-80
2023/10/29 02:44:15;;;;;;;2.03;1.00;;;14.40;1.00;;;;;;5080147;28;20173;-80
2023/10/29 02:46:41;;;;;;;2.53;1.07;;;14.40;1.00;;;;;;5079627;28;20205;-80
2023/10/29 02:49:07;;;;;;;1.10;0.60;;;14.40;1.00;;;;;;5058893;28;20181;-80
2023/10/29 02:51:32;;;;;;;2.07;0.70;;;14.40;1.00;;;;;;5079150;28;20189;-80
2023/10/29 02:53:58;;;;;;;2.03;0.90;;;14.40;1.00;;;;;;5063039;28;20212;-79
2023/10/29 02:56:23;;;;;;;1.90;0.80;;;14.40;1.00;;;;;;5078901;28;20209;-80
2023/10/29 02:58:49;;;;;;;1.73;0.93;;;14.40;1.00;;;;;;5079970;28;20189;-80
2023/10/29 03:01:15;;;;;;;1.30;0.90;;;14.40;1.00;;;;;;5079122;28;20185;-80
2023/10/29 03:03:41;;;;;;;3.27;1.03;;;14.40;1.00;;;;;;5077363;28;20216;-79
2023/10/29 03:06:08;;;;;;;1.30;0.70;;;14.40;1.00;;;;;;5078313;28;20451;-80
2023/10/29 03:08:35;;;;;;;4.53;0.90;;;14.40;99.90;;;;;;5074742;28;20882;-80
2023/10/29 03:11:02;;;;;;;2.50;1.10;;;14.40;1.00;;;;;;5060789;28;20466;-80
2023/10/29 03:13:28;;;;;;;1.53;1.10;;;14.40;1.00;;;;;;5078647;28;20434;-80
2023/10/29 03:15:54;;;;;;;2.67;1.00;;;14.40;99.90;;;;;;5074713;28;20923;-80
2023/10/29 03:18:20;;;;;;;5.00;1.00;;;14.40;99.90;;;;;;5055095;28;20181;-80
2023/10/29 03:20:46;;;;;;;1.10;0.63;;;14.50;99.90;;;;;;5079431;28;20477;-80
2023/10/29 03:23:11;;;;;;;2.23;0.87;;;14.50;99.90;;;;;;5074560;28;20447;-80
2023/10/29 03:25:37;;;;;;;1.87;0.70;;;14.50;99.90;;;;;;5077421;28;20602;-80
2023/10/29 03:28:02;;;;;;;2.13;0.83;;;14.50;99.90;;;;;;5078345;28;20183;-80
2023/10/29 03:30:28;;;;;;;4.10;1.10;;;14.50;99.90;;;;;;5049567;28;20218;-80
2023/10/29 03:32:53;;;;;;;6.30;1.00;;;14.50;99.90;;;;;;5073978;28;20205;-79
2023/10/29 03:35:19;;;;;;;1.70;0.80;;;14.50;99.90;;;;;;5078209;28;20801;-80
2023/10/29 03:37:44;;;;;;;2.70;1.33;;;14.50;99.90;;;;;;5078152;28;20686;-80
2023/10/29 03:40:10;;;;;;;3.07;0.77;;;14.50;99.90;;;;;;5074517;28;20800;-79
2023/10/29 03:42:35;;;;;;;1.07;0.80;;;14.50;99.90;;;;;;5079806;28;20176;-80
2023/10/29 03:45:03;;;;;;;1.90;0.90;;;14.60;99.90;;;;;;5077840;28;20665;-80
2023/10/29 03:47:28;;;;;;;2.30;0.90;;;14.60;99.90;;;;;;5078811;28;20197;-80
2023/10/29 03:49:55;;;;;;;2.33;0.70;;;14.60;99.90;;;;;;5078430;28;20451;-79
2023/10/29 03:52:23;;;;;;;1.47;0.93;;;14.60;99.90;;;;;;5079216;28;20185;-80
2023/10/29 03:54:49;;;;;;;3.63;0.90;;;14.70;94.70;;;;;;5075808;28;20448;-80
2023/10/29 03:57:14;;;;;;;3.40;1.00;;;14.70;99.90;;;;;;5058538;28;20463;-80
2023/10/29 03:59:40;;;;;;;1.70;0.80;;;14.70;1.00;;;;;;5077980;28;20217;-78
2023/10/29 04:02:06;;;;;;;1.60;0.70;;;14.80;1.00;;;;;;5074979;28;20182;-79
2023/10/29 04:04:32;;;;;;;1.87;0.90;;;14.80;1.00;;;;;;5070739;28;20183;-80
2023/10/29 04:06:58;;;;;;;2.70;0.90;;;14.80;1.00;;;;;;5072117;28;20202;-80
2023/10/29 04:09:24;;;;;;;2.03;0.80;;;14.80;99.90;;;;;;5078493;28;20439;-80
2023/10/29 04:11:52;;;;;;;3.13;1.20;;;14.90;99.90;;;;;;5076902;28;20663;-80
2023/10/29 04:14:17;;;;;;;8.30;1.30;;;14.90;99.90;;;;;;5074375;28;20683;-81
2023/10/29 04:16:43;;;;;;;1.70;0.87;;;14.90;99.90;;;;;;5077464;28;20463;-79
2023/10/29 04:19:09;;;;;;;4.80;1.20;;;14.90;99.90;;;;;;5076956;28;20209;-80
2023/10/29 04:21:34;;;;;;;11.30;1.10;;;14.90;99.90;;;;;;5077599;28;20182;-79
2023/10/29 04:24:00;;;;;;;8.80;1.10;;;14.90;99.90;;;;;;5078206;28;20197;-80
2023/10/29 04:26:25;;;;;;;2.30;1.00;;;14.90;99.90;;;;;;5076478;28;20205;-80
2023/10/29 04:28:51;;;;;;;2.00;0.97;;;14.90;1.00;;;;;;5074582;28;20234;-80
2023/10/29 04:31:16;;;;;;;5.50;0.90;;;14.90;1.00;;;;;;5077041;28;20197;-80
2023/10/29 04:33:45;;;;;;;3.00;1.00;;;14.90;1.00;;;;;;5059920;28;20216;-80
2023/10/29 04:36:18;;;;;;;2.33;0.90;;;15.00;99.90;;;;;;5054721;28;20277;-80
2023/10/29 04:38:44;;;;;;;5.60;1.00;;;15.00;1.00;;;;;;5060647;28;20434;-80
2023/10/29 04:41:09;;;;;;;1.67;0.90;;;15.00;1.00;;;;;;5077399;28;20823;-80
2023/10/29 04:43:35;;;;;;;4.90;0.90;;;15.00;6.90;;;;;;5074630;28;20174;-79
2023/10/29 04:46:00;;;;;;;5.07;1.00;;;14.90;99.90;;;;;;5078042;28;20234;-79
2023/10/29 04:48:26;;;;;;;2.37;1.13;;;15.00;82.50;;;;;;5081765;28;20202;-80
2023/10/29 04:50:51;;;;;;;2.17;0.97;;;15.00;99.90;;;;;;5080973;28;20204;-80
2023/10/29 04:53:17;;;;;;;2.07;0.90;;;15.00;99.90;;;;;;5080554;28;20191;-80
2023/10/29 04:55:42;;;;;;;4.80;1.13;;;15.00;99.90;;;;;;5080862;28;20268;-80
2023/10/29 04:58:07;;;;;;;1.77;0.80;;;15.00;99.90;;;;;;5081305;28;20177;-79
2023/10/29 05:00:33;;;;;;;3.30;1.40;;;15.00;35.60;;;;;;5081570;28;20219;-79
2023/10/29 05:02:58;;;;;;;1.73;0.90;;;15.00;99.90;;;;;;5077166;28;20181;-80
2023/10/29 05:05:24;;;;;;;2.23;1.10;;;15.00;3.80;;;;;;5047876;28;20178;-80
2023/10/29 05:07:49;;;;;;;6.47;1.17;;;15.00;1.00;;;;;;5078934;28;20239;-80
2023/10/29 05:10:15;;;;;;;5.53;1.10;;;15.00;99.90;;;;;;5081091;28;20215;-80
2023/10/29 05:12:41;;;;;;;2.13;0.90;;;15.00;1.00;;;;;;5081020;28;20189;-80
2023/10/29 05:15:07;;;;;;;2.20;1.10;;;15.00;99.90;;;;;;5059662;28;20272;-80
2023/10/29 05:17:33;;;;;;;4.63;0.80;;;15.10;1.00;;;;;;5055431;28;20206;-79
2023/10/29 05:19:59;;;;;;;2.63;1.00;;;15.10;99.90;;;;;;5077229;28;20463;-80
2023/10/29 05:22:25;;;;;;;2.20;0.83;;;15.10;1.00;;;;;;5081366;28;20440;-79
2023/10/29 05:24:50;;;;;;;2.80;0.90;;;15.10;99.90;;;;;;5079630;28;20177;-79
2023/10/29 05:27:16;;;;;;;2.13;0.90;;;15.10;1.00;;;;;;5080962;28;20471;-80
2023/10/29 05:29:41;;;;;;;3.00;0.70;;;15.00;1.00;;;;;;5080358;28;20521;-80
2023/10/29 05:32:07;;;;;;;3.10;1.10;;;15.00;1.00;;;;;;5059483;28;20189;-79
2023/10/29 05:34:36;;;;;;;1.90;1.03;;;15.00;1.00;;;;;;5080513;28;20190;-80
2023/10/29 05:37:02;;;;;;;3.60;1.17;;;15.00;1.00;;;;;;5079784;28;20209;-80
2023/10/29 05:39:27;;;;;;;4.60;1.00;;;14.90;1.00;;;;;;5077378;28;20474;-80
2023/10/29 05:41:53;;;;;;;5.33;1.33;;;15.00;1.00;;;;;;5079790;28;20188;-80
2023/10/29 05:44:18;;;;;;;3.30;1.20;;;14.90;1.00;;;;;;5079280;28;20182;-80
2023/10/29 05:46:44;;;;;;;2.57;0.70;;;14.90;99.90;;;;;;5080670;28;20771;-80
2023/10/29 05:49:09;;;;;;;2.83;1.10;;;14.90;99.90;;;;;;5079973;28;20192;-80
2023/10/29 05:51:35;;;;;;;3.60;0.90;;;14.80;99.90;;;;;;5080254;28;20192;-80
2023/10/29 05:54:00;;;;;;;2.13;0.90;;;14.80;1.00;;;;;;5076027;28;20192;-80
2023/10/29 05:56:26;;;;;;;2.00;1.20;;;14.80;1.00;;;;;;5078720;28;20690;-80
2023/10/29 05:58:51;;;;;;;3.87;1.23;;;14.80;1.00;;;;;;5060487;28;20185;-80
2023/10/29 06:01:17;;;;;;;2.23;0.80;;;14.70;1.00;;;;;;5078420;28;20231;-80
2023/10/29 06:03:42;;;;;;;3.97;0.90;;;14.70;1.00;;;;;;5078877;28;20216;-79
2023/10/29 06:06:08;;;;;;;3.37;1.00;;;14.70;1.00;;;;;;5058466;28;20205;-80
2023/10/29 06:08:33;;;;;;;5.27;1.30;;;14.70;1.00;;;;;;5079538;28;20264;-80
2023/10/29 06:10:59;;;;;;;5.63;1.07;;;14.70;1.00;;;;;;5077100;28;20285;-80
2023/10/29 06:13:25;;;;;;;4.87;1.20;;;14.70;1.00;;;;;;5076739;28;20182;-80
2023/10/29 06:15:50;;;;;;;3.50;1.30;;;14.70;1.00;;;;;;5060150;28;20496;-80
2023/10/29 06:18:16;;;;;;;6.00;2.10;;;14.70;50.90;;;;;;5079628;28;20614;-80
2023/10/29 06:20:42;;;;;;;3.80;0.90;;;14.70;99.90;;;;;;5077200;28;20255;-80
2023/10/29 06:23:08;;;;;;;6.03;1.30;;;14.70;99.90;;;;;;5079255;28;20190;-80
2023/10/29 06:25:34;;;;;;;4.63;1.33;;;14.60;1.00;;;;;;5079093;28;20442;-80
2023/10/29 06:28:00;;;;;;;3.40;1.00;;;14.60;99.90;;;;;;5073899;28;20816;-80
2023/10/29 06:30:25;;;;;;;7.23;1.27;;;14.60;99.90;;;;;;5078665;28;20228;-80
2023/10/29 06:32:51;;;;;;;4.20;1.20;;;14.70;99.90;;;;;;5079012;28;20237;-80
2023/10/29 06:35:16;;;;;;;6.57;2.13;;;14.70;99.90;;;;;;5075393;28;20169;-80
2023/10/29 06:37:42;;;;;;;4.80;1.27;;;14.70;99.90;;;;;;5079943;28;20211;-80
2023/10/29 06:40:08;;;;;;;4.00;1.10;;;14.60;99.90;;;;;;5076880;28;20221;-80
2023/10/29 06:42:34;;;;;;;3.27;1.20;;;14.70;99.90;;;;;;5077684;28;20189;-80
2023/10/29 06:44:59;;;;;;;2.27;1.00;;;14.70;41.50;;;;;;5079367;28;20875;-80
2023/10/29 06:47:25;;;;;;;2.93;0.90;;;14.70;4.00;;;;;;5080275;28;20209;-80
2023/10/29 06:49:53;;;;;;;3.23;1.30;;;14.70;1.00;;;;;;5078757;28;20616;-80
2023/10/29 06:52:19;;;;;;;3.80;1.10;;;14.70;99.90;;;;;;5077855;28;20165;-80
2023/10/29 06:54:44;;;;;;;7.03;0.97;;;14.70;99.90;;;;;;5079504;28;20427;-80
2023/10/29 06:57:10;;;;;;;2.53;0.90;;;14.70;99.90;;;;;;5079771;28;20208;-79
2023/10/29 06:59:35;;;;;;;2.30;1.47;;;14.70;1.00;;;;;;5077298;28;20221;-80
2023/10/29 07:02:01;;;;;;;2.40;0.90;;;14.70;99.90;;;;;;5075099;28;20831;-81
2023/10/29 07:04:26;;;;;;;3.23;1.40;;;14.70;1.00;;;;;;5068551;28;20177;-80
2023/10/29 07:06:52;;;;;;;7.43;1.13;;;14.80;1.00;;;;;;5055890;28;20224;-81
2023/10/29 07:09:18;;;;;;;6.70;1.30;;;14.80;1.00;;;;;;5076920;28;20185;-81
2023/10/29 07:11:44;;;;;;;2.27;1.00;;;14.90;99.90;;;;;;5056777;28;20660;-81
2023/10/29 07:14:11;;;;;;;2.97;1.40;;;14.90;99.90;;;;;;5053439;28;20435;-81
2023/10/29 07:16:37;;;;;;;3.60;1.10;;;15.00;1.00;;;;;;5072382;28;20556;-81
2023/10/29 07:19:04;;;;;;;3.70;1.10;;;15.10;1.00;;;;;;5076763;28;20477;-81
2023/10/29 07:21:30;;;;;;;3.10;1.30;;;15.10;99.90;;;;;;5057443;28;20432;-81
2023/10/29 07:23:55;;;;;;;10.77;2.30;;;15.20;99.90;;;;;;5076188;28;20497;-81
2023/10/29 07:26:21;;;;;;;3.93;1.30;;;15.20;1.00;;;;;;5074171;28;20435;-80
2023/10/29 07:28:47;;;;;;;3.50;1.23;;;15.20;1.00;;;;;;5059536;28;20165;-81
2023/10/29 07:31:12;;;;;;;4.97;1.40;;;15.20;1.00;;;;;;5060095;28;20568;-81
2023/10/29 07:33:38;;;;;;;5.40;1.40;;;15.20;1.00;;;;;;5049850;28;20190;-81
2023/10/29 07:36:04;;;;;;;5.30;1.10;;;15.20;1.00;;;;;;5073851;28;20266;-81
2023/10/29 07:38:30;;;;;;;4.50;1.40;;;15.20;1.00;;;;;;5077124;28;20193;-80
2023/10/29 07:40:55;;;;;;;5.30;1.00;;;15.30;1.00;;;;;;5078270;28;20467;-81
2023/10/29 07:43:21;;;;;;;3.00;1.17;;;15.80;99.90;;;;;;5078049;28;20509;-80
2023/10/29 07:45:47;;;;;;;4.23;1.10;;;16.80;99.90;;;;;;5078325;28;20305;-81
2023/10/29 07:48:17;;;;;;;2.80;1.17;;;17.10;99.90;;;;;;5078630;28;20177;-80
2023/10/29 07:50:49;;;;;;;6.40;1.33;;;18.10;17.70;;;;;;5060917;28;20443;-81
2023/10/29 07:53:14;;;;;;;7.00;1.70;;;18.90;1.00;;;;;;5077391;28;20432;-81
2023/10/29 07:55:40;;;;;;;3.80;1.30;;;18.70;1.00;;;;;;5078778;28;20834;-81
2023/10/29 07:58:05;;;;;;;5.23;1.80;;;18.20;1.00;;;;;;5077578;28;20180;-81
2023/10/29 08:00:31;;;;;;;2.50;1.10;;;17.80;1.00;;;;;;5059914;28;20201;-81
2023/10/29 08:02:57;;;;;;;3.33;1.63;;;17.60;1.00;;;;;;5078060;28;20181;-81
2023/10/29 08:05:22;;;;;;;4.80;1.67;;;17.40;1.00;;;;;;5074636;28;20185;-81
2023/10/29 08:07:48;;;;;;;4.77;1.23;;;17.20;1.00;;;;;;5057615;28;20439;-80
2023/10/29 08:10:13;;;;;;;3.97;1.20;;;17.00;1.00;;;;;;5077533;28;20189;-81
2023/10/29 08:12:39;;;;;;;4.90;1.30;;;16.90;1.00;;;;;;5072710;28;20412;-81
2023/10/29 08:15:05;;;;;;;3.33;1.07;;;16.90;1.00;;;;;;5069770;28;20567;-80
2023/10/29 08:17:30;;;;;;;8.80;1.83;;;16.80;1.00;;;;;;5077408;28;20208;-81
2023/10/29 08:19:58;;;;;;;5.23;1.37;;;16.90;1.00;;;;;;5079428;28;20865;-82
2023/10/29 08:22:23;;;;;;;4.27;1.77;;;16.90;1.00;;;;;;5079033;28;20185;-81
2023/10/29 08:24:49;;;;;;;3.40;1.40;;;16.90;1.00;;;;;;5079198;28;20453;-81
2023/10/29 08:27:14;;;;;;;7.37;2.30;;;17.00;1.00;;;;;;5080599;28;20200;-81
2023/10/29 08:29:41;;;;;;;3.63;1.03;;;17.00;1.00;;;;;;5081182;28;20435;-81
2023/10/29 08:32:07;;;;;;;4.70;1.67;;;16.90;1.00;;;;;;5081617;28;20181;-81
2023/10/29 08:34:32;;;;;;;3.37;1.20;;;16.90;1.00;;;;;;5077659;28;20864;-80
2023/10/29 08:36:58;;;;;;;4.60;1.33;;;16.80;1.00;;;;;;5078986;28;20201;-81
2023/10/29 08:39:24;;;;;;;5.87;2.10;;;16.80;1.00;;;;;;5081721;28;20300;-81
2023/10/29 08:41:49;;;;;;;4.90;1.20;;;16.80;1.00;;;;;;5080045;28;20935;-81
2023/10/29 08:44:15;;;;;;;4.57;1.00;;;16.90;1.00;;;;;;5073701;28;20283;-83
2023/10/29 08:46:43;;;;;;;4.80;1.40;;;16.90;1.00;;;;;;5075882;28;20198;-81
2023/10/29 08:49:09;;;;;;;4.73;1.30;;;16.80;1.00;;;;;;5074496;28;20290;-81
2023/10/29 08:51:35;;;;;;;4.90;1.17;;;16.80;1.00;;;;;;5079909;28;20447;-80
2023/10/29 08:54:02;;;;;;;4.83;1.47;;;16.70;1.00;;;;;;5079803;28;20810;-81
2023/10/29 08:56:29;;;;;;;3.17;1.43;;;16.60;1.00;;;;;;5059550;28;20772;-81
2023/10/29 08:58:55;;;;;;;3.90;1.10;;;16.60;1.00;;;;;;5079005;28;20457;-81
2023/10/29 09:01:20;;;;;;;2.93;1.10;;;16.50;1.00;;;;;;5072641;28;20456;-81
2023/10/29 09:03:46;;;;;;;3.40;1.07;;;16.50;1.00;;;;;;5076388;28;20227;-81
2023/10/29 09:06:12;;;;;;;2.57;1.07;;;16.50;1.00;;;;;;5075541;28;20205;-81
2023/10/29 09:08:38;;;;;;;5.80;1.60;;;16.50;1.00;;;;;;5077994;28;20223;-80
2023/10/29 09:11:04;;;;;;;4.40;1.00;;;16.60;1.00;;;;;;5080673;28;20467;-81
2023/10/29 09:13:30;;;;;;;3.47;0.90;;;17.00;1.00;;;;;;5080105;28;20268;-81
2023/10/29 09:15:55;;;;;;;5.60;1.20;;;17.20;1.00;;;;;;5077118;28;20213;-81
2023/10/29 09:18:21;;;;;;;3.30;1.10;;;17.10;1.00;;;;;;5075095;28;20458;-81
2023/10/29 09:20:46;;;;;;;2.57;1.00;;;17.00;1.00;;;;;;5079689;28;20259;-81
2023/10/29 09:23:15;;;;;;;4.20;1.30;;;16.90;1.00;;;;;;5078774;28;20182;-81
2023/10/29 09:25:44;;;;;;;5.67;0.90;;;16.90;1.00;;;;;;5063243;28;20221;-81
2023/10/29 09:28:12;;;;;;;2.67;1.20;;;16.80;1.00;;;;;;5077374;28;20447;-81
2023/10/29 09:30:41;;;;;;;2.53;1.00;;;16.80;1.00;;;;;;5062187;28;20836;-81
2023/10/29 09:33:08;;;;;;;3.83;0.97;;;16.80;1.00;;;;;;5078500;28;20458;-81
2023/10/29 09:35:35;;;;;;;2.47;1.17;;;16.90;1.00;;;;;;5073310;28;20468;-80
2023/10/29 09:38:01;;;;;;;3.40;1.03;;;16.90;1.00;;;;;;5061379;28;20443;-81
2023/10/29 09:40:26;;;;;;;3.43;1.07;;;16.80;1.00;;;;;;5062695;28;20559;-81
2023/10/29 09:42:55;;;;;;;3.40;1.03;;;16.80;1.00;;;;;;5081826;28;20205;-81
2023/10/29 09:45:27;;;;;;;3.57;1.13;;;17.00;1.00;;;;;;5082572;28;20201;-81
2023/10/29 09:47:53;;;;;;;3.40;0.90;;;19.30;1.00;;;;;;5082151;28;20412;-80
2023/10/29 09:50:21;;;;;;;2.60;1.00;;;23.00;99.90;;;;;;5082924;28;20431;-82
2023/10/29 09:52:53;;;;;;;2.43;1.00;;;25.70;99.90;;;;;;5064091;28;20448;-82
2023/10/29 09:55:20;;;;;;;2.47;0.73;;;27.20;99.90;;;;;;5073507;28;20455;-82
2023/10/29 09:57:46;;;;;;;4.07;1.03;;;28.30;99.90;;;;;;5082954;28;20470;-82
2023/10/29 10:00:15;;;;;;;4.50;1.20;;;28.30;99.90;;;;;;5082348;28;20492;-82
2023/10/29 10:02:53;;;;;;;3.20;0.90;;;28.50;99.90;;;;;;5083429;28;20426;-81
2023/10/29 10:05:20;;;;;;;2.80;1.10;;;28.40;99.90;;;;;;5075918;28;20438;-82
2023/10/29 10:07:45;;;;;;;2.40;1.10;;;27.40;99.90;;;;;;5079368;28;20525;-82
2023/10/29 10:10:11;;;;;;;2.77;0.90;;;26.30;99.90;;;;;;5077845;28;20479;-81
2023/10/29 10:12:50;;;;;;;8.00;1.30;;;24.90;99.90;;;;;;5082180;28;20230;-82
2023/10/29 10:15:20;;;;;;;5.53;1.30;;;23.60;99.90;;;;;;5068817;28;20177;-82
2023/10/29 10:17:58;;;;;;;3.20;0.90;;;22.70;99.90;;;;;;5060839;28;20459;-82
2023/10/29 10:20:24;;;;;;;8.10;1.40;;;21.70;99.90;;;;;;5082417;28;20477;-82
2023/10/29 10:23:08;;;;;;;5.87;1.53;;;21.20;99.90;;;;;;5062702;28;20428;-82
2023/10/29 10:25:34;;;;;;;3.43;1.00;;;20.70;99.90;;;;;;5080817;28;20432;-82
2023/10/29 10:28:02;;;;;;;4.70;0.97;;;20.80;99.90;;;;;;5067744;28;20443;-82
2023/10/29 10:30:35;;;;;;;2.73;0.80;;;21.10;99.90;;;;;;5082161;28;20415;-81
2023/10/29 10:33:15;;;;;;;4.97;1.10;;;21.40;99.90;;;;;;5080730;28;20850;-82
2023/10/29 10:35:45;;;;;;;4.30;1.10;;;22.20;99.90;;;;;;5068625;28;21321;-82
2023/10/29 10:38:13;;;;;;;3.63;1.20;;;23.50;99.90;;;;;;5074620;28;20446;-82
2023/10/29 10:40:39;;;;;;;8.33;1.17;;;24.60;99.90;;;;;;5081238;28;20467;-82
2023/10/29 10:43:07;;;;;;;3.50;0.93;;;25.30;99.90;;;;;;5062953;28;21058;-82
2023/10/29 10:45:33;;;;;;;1.70;1.00;;;26.50;99.90;;;;;;5077746;28;20179;-82
2023/10/29 10:48:01;;;;;;;3.80;0.90;;;27.70;99.90;;;;;;5079878;28;20423;-82
2023/10/29 10:50:27;;;;;;;5.03;1.07;;;27.60;99.90;;;;;;5080489;28;20875;-82
2023/10/29 10:52:54;;;;;;;4.57;1.43;;;26.80;99.90;;;;;;5062402;28;20456;-82
2023/10/29 10:55:20;;;;;;;2.70;0.90;;;26.40;99.90;;;;;;5080056;28;20436;-83
2023/10/29 10:57:48;;;;;;;3.53;1.27;;;26.10;99.90;;;;;;5062605;28;20467;-82
2023/10/29 11:00:14;;;;;;;3.10;1.00;;;25.80;99.90;;;;;;5078651;28;20476;-81
2023/10/29 11:02:40;;;;;;;4.13;1.50;;;26.10;99.90;;;;;;5076481;28;20855;-82
2023/10/29 11:05:09;;;;;;;2.27;0.80;;;26.40;99.90;;;;;;5076854;28;20423;-82
2023/10/29 11:07:36;;;;;;;2.80;1.13;;;25.80;99.90;;;;;;5074024;28;20808;-82
2023/10/29 11:10:02;;;;;;;2.03;0.70;;;25.60;99.90;;;;;;5079948;28;20423;-82
2023/10/29 11:12:33;;;;;;;4.70;1.17;;;25.20;99.90;;;;;;5080089;28;20871;-82
2023/10/29 11:15:19;;;;;;;6.63;1.60;;;24.60;99.90;;;;;;5079869;28;20407;-82
2023/10/29 11:17:59;;;;;;;1.93;0.93;;;23.80;99.90;;;;;;5076575;28;20964;-82
2023/10/29 11:20:37;;;;;;;4.23;1.10;;;22.80;99.90;;;;;;5073288;28;20863;-81
2023/10/29 11:23:07;;;;;;;3.87;1.80;;;22.00;99.90;;;;;;5074953;28;20411;-82
2023/10/29 11:25:32;;;;;;;2.70;1.10;;;21.20;99.90;;;;;;5073668;28;20492;-81
2023/10/29 11:27:58;;;;;;;4.10;0.90;;;20.50;99.90;;;;;;5079299;28;20416;-81
2023/10/29 11:30:28;;;;;;;3.50;1.50;;;19.80;99.90;;;;;;5079473;28;20201;-82
2023/10/29 11:33:05;;;;;;;4.37;1.50;;;19.40;99.90;;;;;;5079860;28;20181;-80
2023/10/29 11:35:34;;;;;;;3.67;1.33;;;19.00;99.90;;;;;;5075288;28;20435;-81
2023/10/29 11:38:02;;;;;;;2.00;1.30;;;18.70;1.00;;;;;;5079006;28;20454;-81
2023/10/29 11:40:29;;;;;;;10.77;1.60;;;18.40;1.00;;;;;;5080593;28;20475;-82
2023/10/29 11:42:57;;;;;;;6.10;1.80;;;18.10;99.90;;;;;;5079308;28;20427;-81
2023/10/29 11:45:34;;;;;;;3.73;1.33;;;17.70;1.00;;;;;;5079280;28;20423;-81
2023/10/29 11:48:09;;;;;;;8.17;1.53;;;17.40;99.90;;;;;;5078538;28;20433;-82
2023/10/29 11:50:36;;;;;;;3.63;1.50;;;17.30;99.90;;;;;;5070410;28;20496;-82
2023/10/29 11:53:02;;;;;;;3.40;1.70;;;17.10;1.00;;;;;;5075664;28;20499;-81
2023/10/29 11:55:29;;;;;;;2.63;1.30;;;17.00;99.90;;;;;;5058969;28;20906;-81
2023/10/29 11:57:56;;;;;;;3.70;1.10;;;16.90;1.00;;;;;;5076754;28;20438;-82
2023/10/29 12:00:21;;;;;;;5.47;1.13;;;16.80;99.90;;;;;;5076713;28;20474;-82
2023/10/29 12:02:48;;;;;;;5.20;0.83;;;16.70;99.90;;;;;;5061974;28;20423;-82
2023/10/29 12:05:15;;;;;;;4.00;1.70;;;16.60;99.90;;;;;;5078642;28;20183;-82
2023/10/29 12:07:41;;;;;;;3.20;1.37;;;16.50;99.90;;;;;;5060795;28;20452;-82
2023/10/29 12:10:07;;;;;;;4.37;1.73;;;16.40;1.00;;;;;;5077000;28;20427;-82
2023/10/29 12:12:33;;;;;;;2.60;1.37;;;16.50;1.00;;;;;;5072595;28;20419;-81
2023/10/29 12:14:59;;;;;;;2.20;1.40;;;16.60;1.00;;;;;;5078123;28;20426;-81
2023/10/29 12:17:27;;;;;;;3.73;1.40;;;16.60;1.00;;;;;;5076085;28;20954;-81
2023/10/29 12:19:52;;;;;;;3.60;1.40;;;16.70;1.00;;;;;;5077766;28;20208;-82
2023/10/29 12:22:27;;;;;;;5.13;1.30;;;17.10;1.00;;;;;;5056424;28;20413;-82
2023/10/29 12:25:00;;;;;;;8.30;1.30;;;17.50;1.00;;;;;;5074712;28;20196;-82
2023/10/29 12:27:30;;;;;;;2.90;1.20;;;17.60;99.90;;;;;;5070227;28;20443;-82
2023/10/29 12:29:56;;;;;;;4.00;1.20;;;17.70;99.90;;;;;;5072867;28;20423;-81
2023/10/29 12:32:25;;;;;;;6.90;1.50;;;17.90;99.90;;;;;;5077723;28;20797;-81
2023/10/29 12:34:52;;;;;;;4.53;1.37;;;17.70;99.90;;;;;;5075603;28;20514;-82
2023/10/29 12:37:25;;;;;;;5.10;1.10;;;17.40;99.90;;;;;;5076649;28;20529;-81
2023/10/29 12:39:52;;;;;;;7.60;1.30;;;17.10;1.00;;;;;;5076756;28;20460;-82
2023/10/29 12:42:19;;;;;;;2.27;1.40;;;16.90;1.00;;;;;;5077628;28;20431;-82
2023/10/29 12:44:56;;;;;;;3.37;1.30;;;16.70;99.90;;;;;;5076646;28;20435;-82
2023/10/29 12:47:22;;;;;;;5.47;1.20;;;16.70;99.90;;;;;;5050838;28;20447;-82
2023/10/29 12:49:59;;;;;;;3.93;1.10;;;16.60;99.90;;;;;;5075272;28;20442;-82